sensor_id;sensor_type;location;lat;lon;timestamp;P1;durP1;ratioP1;P2;durP2;ratioP2
24557;SDS011;12726;49.148;8.582;2022-11-25T00:02:43;19.50;;;7.60;;
24557;SDS011;12726;49.148;8.582;2022-11-25T00:05:28;13.90;;;7.22;;
24557;SDS011;12726;49.148;8.582;2022-11-25T00:08:13;18.92;;;8.23;;
24557;SDS011;12726;49.148;8.582;2022-11-25T00:10:59;15.43;;;7.70;;
24557;SDS011;12726;49.148;8.582;2022-11-25T00:13:44;14.07;;;7.68;;
24557;SDS011;12726;49.148;8.582;2022-11-25T00:16:32;17.02;;;7.72;;
24557;SDS011;12726;49.148;8.582;2022-11-25T00:19:17;15.10;;;7.65;;
24557;SDS011;12726;49.148;8.582;2022-11-25T00:22:02;22.02;;;8.50;;
24557;SDS011;12726;49.148;8.582;2022-11-25T00:24:47;17.75;;;8.45;;
24557;SDS011;12726;49.148;8.582;2022-11-25T00:27:32;23.67;;;9.65;;
24557;SDS011;12726;49.148;8.582;2022-11-25T00:30:18;25.55;;;11.32;;
24557;SDS011;12726;49.148;8.582;2022-11-25T00:33:04;21.50;;;9.50;;
24557;SDS011;12726;49.148;8.582;2022-11-25T00:35:50;17.40;;;6.63;;
24557;SDS011;12726;49.148;8.582;2022-11-25T00:38:35;14.15;;;6.72;;
24557;SDS011;12726;49.148;8.582;2022-11-25T00:41:20;12.15;;;6.40;;
24557;SDS011;12726;49.148;8.582;2022-11-25T00:44:24;14.88;;;6.40;;
24557;SDS011;12726;49.148;8.582;2022-11-25T00:47:22;14.80;;;7.10;;
24557;SDS011;12726;49.148;8.582;2022-11-25T00:50:09;12.48;;;6.07;;
24557;SDS011;12726;49.148;8.582;2022-11-25T00:52:54;15.32;;;6.13;;
24557;SDS011;12726;49.148;8.582;2022-11-25T00:55:39;16.80;;;6.88;;
24557;SDS011;12726;49.148;8.582;2022-11-25T00:58:38;11.63;;;6.55;;
24557;SDS011;12726;49.148;8.582;2022-11-25T01:01:24;13.55;;;6.47;;
24557;SDS011;12726;49.148;8.582;2022-11-25T01:04:09;14.20;;;6.00;;
24557;SDS011;12726;49.148;8.582;2022-11-25T01:06:56;11.80;;;5.82;;
24557;SDS011;12726;49.148;8.582;2022-11-25T01:09:42;14.82;;;6.25;;
24557;SDS011;12726;49.148;8.582;2022-11-25T01:12:28;10.80;;;5.80;;
24557;SDS011;12726;49.148;8.582;2022-11-25T01:15:13;10.40;;;5.35;;
24557;SDS011;12726;49.148;8.582;2022-11-25T01:18:01;11.38;;;5.45;;
24557;SDS011;12726;49.148;8.582;2022-11-25T01:20:46;9.27;;;4.75;;
24557;SDS011;12726;49.148;8.582;2022-11-25T01:23:32;11.65;;;5.15;;
24557;SDS011;12726;49.148;8.582;2022-11-25T01:26:19;8.25;;;4.47;;
24557;SDS011;12726;49.148;8.582;2022-11-25T01:29:06;9.45;;;4.07;;
24557;SDS011;12726;49.148;8.582;2022-11-25T01:31:55;11.93;;;4.90;;
24557;SDS011;12726;49.148;8.582;2022-11-25T01:34:40;11.30;;;4.35;;
24557;SDS011;12726;49.148;8.582;2022-11-25T01:37:25;15.10;;;4.75;;
24557;SDS011;12726;49.148;8.582;2022-11-25T01:40:12;8.65;;;3.78;;
24557;SDS011;12726;49.148;8.582;2022-11-25T01:42:58;12.90;;;3.45;;
24557;SDS011;12726;49.148;8.582;2022-11-25T01:45:43;11.48;;;3.85;;
24557;SDS011;12726;49.148;8.582;2022-11-25T01:48:31;10.80;;;3.50;;
24557;SDS011;12726;49.148;8.582;2022-11-25T01:51:25;7.68;;;3.28;;
24557;SDS011;12726;49.148;8.582;2022-11-25T01:54:18;8.47;;;3.57;;
24557;SDS011;12726;49.148;8.582;2022-11-25T01:57:08;4.78;;;3.13;;
24557;SDS011;12726;49.148;8.582;2022-11-25T01:59:58;8.20;;;3.53;;
24557;SDS011;12726;49.148;8.582;2022-11-25T02:02:47;8.15;;;2.70;;
24557;SDS011;12726;49.148;8.582;2022-11-25T02:05:35;11.25;;;4.28;;
24557;SDS011;12726;49.148;8.582;2022-11-25T02:08:24;10.45;;;3.95;;
24557;SDS011;12726;49.148;8.582;2022-11-25T02:11:11;8.85;;;3.50;;
24557;SDS011;12726;49.148;8.582;2022-11-25T02:13:59;6.18;;;3.00;;
24557;SDS011;12726;49.148;8.582;2022-11-25T02:16:46;8.50;;;3.17;;
24557;SDS011;12726;49.148;8.582;2022-11-25T02:19:35;7.88;;;3.00;;
24557;SDS011;12726;49.148;8.582;2022-11-25T02:22:33;5.20;;;2.70;;
24557;SDS011;12726;49.148;8.582;2022-11-25T02:25:37;6.85;;;2.88;;
24557;SDS011;12726;49.148;8.582;2022-11-25T02:28:25;9.07;;;3.22;;
24557;SDS011;12726;49.148;8.582;2022-11-25T02:31:17;7.38;;;2.95;;
24557;SDS011;12726;49.148;8.582;2022-11-25T02:34:03;7.70;;;3.15;;
24557;SDS011;12726;49.148;8.582;2022-11-25T02:36:49;7.10;;;3.50;;
24557;SDS011;12726;49.148;8.582;2022-11-25T02:39:34;7.95;;;2.90;;
24557;SDS011;12726;49.148;8.582;2022-11-25T02:42:21;10.93;;;3.38;;
24557;SDS011;12726;49.148;8.582;2022-11-25T02:45:09;9.20;;;3.08;;
24557;SDS011;12726;49.148;8.582;2022-11-25T02:47:59;7.97;;;2.80;;
24557;SDS011;12726;49.148;8.582;2022-11-25T02:50:44;9.25;;;3.08;;
24557;SDS011;12726;49.148;8.582;2022-11-25T02:53:30;6.80;;;2.97;;
24557;SDS011;12726;49.148;8.582;2022-11-25T02:56:15;10.55;;;4.10;;
24557;SDS011;12726;49.148;8.582;2022-11-25T02:59:03;6.78;;;3.20;;
24557;SDS011;12726;49.148;8.582;2022-11-25T03:01:48;9.57;;;3.17;;
24557;SDS011;12726;49.148;8.582;2022-11-25T03:04:33;14.82;;;3.33;;
24557;SDS011;12726;49.148;8.582;2022-11-25T03:07:19;4.43;;;2.72;;
24557;SDS011;12726;49.148;8.582;2022-11-25T03:10:04;7.47;;;2.60;;
24557;SDS011;12726;49.148;8.582;2022-11-25T03:12:50;6.18;;;2.50;;
24557;SDS011;12726;49.148;8.582;2022-11-25T03:15:37;6.50;;;3.13;;
24557;SDS011;12726;49.148;8.582;2022-11-25T03:18:22;6.88;;;2.92;;
24557;SDS011;12726;49.148;8.582;2022-11-25T03:21:07;4.57;;;2.65;;
24557;SDS011;12726;49.148;8.582;2022-11-25T03:23:52;13.13;;;4.32;;
24557;SDS011;12726;49.148;8.582;2022-11-25T03:26:38;6.97;;;3.15;;
24557;SDS011;12726;49.148;8.582;2022-11-25T03:29:23;7.22;;;3.08;;
24557;SDS011;12726;49.148;8.582;2022-11-25T03:32:11;7.38;;;3.53;;
24557;SDS011;12726;49.148;8.582;2022-11-25T03:34:56;11.88;;;3.80;;
24557;SDS011;12726;49.148;8.582;2022-11-25T03:37:41;7.10;;;3.22;;
24557;SDS011;12726;49.148;8.582;2022-11-25T03:40:27;6.72;;;3.35;;
24557;SDS011;12726;49.148;8.582;2022-11-25T03:43:12;6.13;;;2.85;;
24557;SDS011;12726;49.148;8.582;2022-11-25T03:45:58;6.03;;;2.70;;
24557;SDS011;12726;49.148;8.582;2022-11-25T03:48:45;4.97;;;2.60;;
24557;SDS011;12726;49.148;8.582;2022-11-25T03:51:30;7.30;;;2.67;;
24557;SDS011;12726;49.148;8.582;2022-11-25T03:54:15;4.53;;;2.72;;
24557;SDS011;12726;49.148;8.582;2022-11-25T03:57:00;9.18;;;3.10;;
24557;SDS011;12726;49.148;8.582;2022-11-25T03:59:45;5.93;;;3.35;;
24557;SDS011;12726;49.148;8.582;2022-11-25T04:02:31;7.03;;;3.00;;
24557;SDS011;12726;49.148;8.582;2022-11-25T04:05:18;5.70;;;2.90;;
24557;SDS011;12726;49.148;8.582;2022-11-25T04:08:03;6.78;;;3.00;;
24557;SDS011;12726;49.148;8.582;2022-11-25T04:10:49;7.82;;;3.40;;
24557;SDS011;12726;49.148;8.582;2022-11-25T04:13:34;12.50;;;4.13;;
24557;SDS011;12726;49.148;8.582;2022-11-25T04:16:21;10.80;;;4.43;;
24557;SDS011;12726;49.148;8.582;2022-11-25T04:19:08;10.50;;;4.43;;
24557;SDS011;12726;49.148;8.582;2022-11-25T04:21:55;9.73;;;3.67;;
24557;SDS011;12726;49.148;8.582;2022-11-25T04:24:42;6.63;;;3.38;;
24557;SDS011;12726;49.148;8.582;2022-11-25T04:27:27;10.25;;;4.07;;
24557;SDS011;12726;49.148;8.582;2022-11-25T04:30:13;8.23;;;4.55;;
24557;SDS011;12726;49.148;8.582;2022-11-25T04:32:59;7.20;;;4.05;;
24557;SDS011;12726;49.148;8.582;2022-11-25T04:35:44;6.60;;;3.42;;
24557;SDS011;12726;49.148;8.582;2022-11-25T04:38:35;7.03;;;3.58;;
24557;SDS011;12726;49.148;8.582;2022-11-25T04:41:20;7.78;;;3.53;;
24557;SDS011;12726;49.148;8.582;2022-11-25T04:44:06;4.97;;;3.17;;
24557;SDS011;12726;49.148;8.582;2022-11-25T04:46:51;6.22;;;3.15;;
24557;SDS011;12726;49.148;8.582;2022-11-25T04:49:36;15.05;;;3.85;;
24557;SDS011;12726;49.148;8.582;2022-11-25T04:52:22;9.68;;;4.68;;
24557;SDS011;12726;49.148;8.582;2022-11-25T04:55:09;10.20;;;5.20;;
24557;SDS011;12726;49.148;8.582;2022-11-25T04:57:54;13.25;;;4.70;;
24557;SDS011;12726;49.148;8.582;2022-11-25T05:00:39;8.95;;;4.70;;
24557;SDS011;12726;49.148;8.582;2022-11-25T05:03:24;9.57;;;5.18;;
24557;SDS011;12726;49.148;8.582;2022-11-25T05:06:09;9.85;;;5.38;;
24557;SDS011;12726;49.148;8.582;2022-11-25T05:08:54;10.57;;;4.57;;
24557;SDS011;12726;49.148;8.582;2022-11-25T05:11:41;13.00;;;4.32;;
24557;SDS011;12726;49.148;8.582;2022-11-25T05:14:26;9.57;;;3.90;;
24557;SDS011;12726;49.148;8.582;2022-11-25T05:17:13;9.20;;;4.35;;
24557;SDS011;12726;49.148;8.582;2022-11-25T05:20:00;6.35;;;3.72;;
24557;SDS011;12726;49.148;8.582;2022-11-25T05:22:47;6.00;;;3.67;;
24557;SDS011;12726;49.148;8.582;2022-11-25T05:25:32;11.10;;;3.67;;
24557;SDS011;12726;49.148;8.582;2022-11-25T05:28:18;9.60;;;4.25;;
24557;SDS011;12726;49.148;8.582;2022-11-25T05:31:04;8.82;;;4.40;;
24557;SDS011;12726;49.148;8.582;2022-11-25T05:33:49;8.00;;;4.72;;
24557;SDS011;12726;49.148;8.582;2022-11-25T05:36:35;12.73;;;6.60;;
24557;SDS011;12726;49.148;8.582;2022-11-25T05:39:20;10.68;;;6.38;;
24557;SDS011;12726;49.148;8.582;2022-11-25T05:42:05;12.63;;;6.70;;
24557;SDS011;12726;49.148;8.582;2022-11-25T05:44:52;13.65;;;6.82;;
24557;SDS011;12726;49.148;8.582;2022-11-25T05:47:37;11.15;;;5.82;;
24557;SDS011;12726;49.148;8.582;2022-11-25T05:50:22;10.32;;;4.35;;
24557;SDS011;12726;49.148;8.582;2022-11-25T05:53:08;19.30;;;9.32;;
24557;SDS011;12726;49.148;8.582;2022-11-25T05:55:54;19.08;;;7.88;;
24557;SDS011;12726;49.148;8.582;2022-11-25T05:58:40;16.27;;;6.10;;
24557;SDS011;12726;49.148;8.582;2022-11-25T06:01:27;9.93;;;4.65;;
24557;SDS011;12726;49.148;8.582;2022-11-25T06:04:12;7.55;;;4.07;;
24557;SDS011;12726;49.148;8.582;2022-11-25T06:06:58;10.02;;;4.25;;
24557;SDS011;12726;49.148;8.582;2022-11-25T06:09:43;7.88;;;3.88;;
24557;SDS011;12726;49.148;8.582;2022-11-25T06:12:28;9.40;;;4.20;;
24557;SDS011;12726;49.148;8.582;2022-11-25T06:15:13;8.98;;;4.03;;
24557;SDS011;12726;49.148;8.582;2022-11-25T06:18:00;9.30;;;4.18;;
24557;SDS011;12726;49.148;8.582;2022-11-25T06:20:54;11.75;;;3.60;;
24557;SDS011;12726;49.148;8.582;2022-11-25T06:23:40;7.20;;;3.78;;
24557;SDS011;12726;49.148;8.582;2022-11-25T06:26:27;12.95;;;4.38;;
24557;SDS011;12726;49.148;8.582;2022-11-25T06:29:12;13.35;;;3.65;;
24557;SDS011;12726;49.148;8.582;2022-11-25T06:31:58;7.07;;;3.60;;
24557;SDS011;12726;49.148;8.582;2022-11-25T06:34:45;8.52;;;3.83;;
24557;SDS011;12726;49.148;8.582;2022-11-25T06:37:30;7.70;;;3.85;;
24557;SDS011;12726;49.148;8.582;2022-11-25T06:40:15;8.27;;;4.53;;
24557;SDS011;12726;49.148;8.582;2022-11-25T06:43:00;10.13;;;4.50;;
24557;SDS011;12726;49.148;8.582;2022-11-25T06:45:47;12.27;;;5.25;;
24557;SDS011;12726;49.148;8.582;2022-11-25T06:48:33;8.70;;;4.88;;
24557;SDS011;12726;49.148;8.582;2022-11-25T06:51:19;8.60;;;4.68;;
24557;SDS011;12726;49.148;8.582;2022-11-25T06:54:07;7.30;;;4.20;;
24557;SDS011;12726;49.148;8.582;2022-11-25T06:56:53;9.80;;;4.43;;
24557;SDS011;12726;49.148;8.582;2022-11-25T06:59:38;9.18;;;4.15;;
24557;SDS011;12726;49.148;8.582;2022-11-25T07:02:23;8.27;;;4.05;;
24557;SDS011;12726;49.148;8.582;2022-11-25T07:05:09;7.72;;;4.07;;
24557;SDS011;12726;49.148;8.582;2022-11-25T07:07:55;33.63;;;13.60;;
24557;SDS011;12726;49.148;8.582;2022-11-25T07:10:41;34.95;;;16.60;;
24557;SDS011;12726;49.148;8.582;2022-11-25T07:13:27;11.90;;;5.57;;
24557;SDS011;12726;49.148;8.582;2022-11-25T07:16:12;12.45;;;5.25;;
24557;SDS011;12726;49.148;8.582;2022-11-25T07:18:58;10.60;;;6.40;;
24557;SDS011;12726;49.148;8.582;2022-11-25T07:21:45;18.45;;;8.07;;
24557;SDS011;12726;49.148;8.582;2022-11-25T07:24:31;13.07;;;5.68;;
24557;SDS011;12726;49.148;8.582;2022-11-25T07:27:17;6.55;;;4.28;;
24557;SDS011;12726;49.148;8.582;2022-11-25T07:30:03;8.85;;;3.72;;
24557;SDS011;12726;49.148;8.582;2022-11-25T07:32:49;9.52;;;4.10;;
24557;SDS011;12726;49.148;8.582;2022-11-25T07:35:35;11.82;;;3.95;;
24557;SDS011;12726;49.148;8.582;2022-11-25T07:38:20;9.18;;;4.20;;
24557;SDS011;12726;49.148;8.582;2022-11-25T07:41:08;8.85;;;5.70;;
24557;SDS011;12726;49.148;8.582;2022-11-25T07:43:56;10.30;;;5.93;;
24557;SDS011;12726;49.148;8.582;2022-11-25T07:46:42;10.23;;;4.68;;
24557;SDS011;12726;49.148;8.582;2022-11-25T07:49:30;7.85;;;3.90;;
24557;SDS011;12726;49.148;8.582;2022-11-25T07:52:15;11.40;;;4.63;;
24557;SDS011;12726;49.148;8.582;2022-11-25T07:55:00;9.18;;;4.28;;
24557;SDS011;12726;49.148;8.582;2022-11-25T07:57:47;7.00;;;3.92;;
24557;SDS011;12726;49.148;8.582;2022-11-25T08:00:32;9.18;;;4.28;;
24557;SDS011;12726;49.148;8.582;2022-11-25T08:03:17;7.43;;;4.28;;
24557;SDS011;12726;49.148;8.582;2022-11-25T08:06:03;8.48;;;3.90;;
24557;SDS011;12726;49.148;8.582;2022-11-25T08:08:50;7.95;;;3.70;;
24557;SDS011;12726;49.148;8.582;2022-11-25T08:11:38;9.40;;;4.07;;
24557;SDS011;12726;49.148;8.582;2022-11-25T08:14:25;11.27;;;4.50;;
24557;SDS011;12726;49.148;8.582;2022-11-25T08:17:10;10.98;;;4.93;;
24557;SDS011;12726;49.148;8.582;2022-11-25T08:19:55;14.07;;;4.88;;
24557;SDS011;12726;49.148;8.582;2022-11-25T08:22:41;6.47;;;4.53;;
24557;SDS011;12726;49.148;8.582;2022-11-25T08:25:26;13.80;;;5.22;;
24557;SDS011;12726;49.148;8.582;2022-11-25T08:28:14;12.55;;;5.47;;
24557;SDS011;12726;49.148;8.582;2022-11-25T08:31:02;6.28;;;3.60;;
24557;SDS011;12726;49.148;8.582;2022-11-25T08:33:48;11.15;;;4.70;;
24557;SDS011;12726;49.148;8.582;2022-11-25T08:36:35;9.50;;;4.15;;
24557;SDS011;12726;49.148;8.582;2022-11-25T08:39:20;6.50;;;3.80;;
24557;SDS011;12726;49.148;8.582;2022-11-25T08:42:06;7.60;;;3.85;;
24557;SDS011;12726;49.148;8.582;2022-11-25T08:44:51;7.28;;;4.18;;
24557;SDS011;12726;49.148;8.582;2022-11-25T08:47:39;7.45;;;3.75;;
24557;SDS011;12726;49.148;8.582;2022-11-25T08:50:24;9.15;;;4.13;;
24557;SDS011;12726;49.148;8.582;2022-11-25T08:53:10;6.90;;;4.10;;
24557;SDS011;12726;49.148;8.582;2022-11-25T08:55:55;6.85;;;3.78;;
24557;SDS011;12726;49.148;8.582;2022-11-25T08:58:40;6.90;;;4.03;;
24557;SDS011;12726;49.148;8.582;2022-11-25T09:01:26;10.73;;;3.65;;
24557;SDS011;12726;49.148;8.582;2022-11-25T09:04:14;8.18;;;3.80;;
24557;SDS011;12726;49.148;8.582;2022-11-25T09:06:59;6.22;;;3.60;;
24557;SDS011;12726;49.148;8.582;2022-11-25T09:09:45;8.65;;;3.90;;
24557;SDS011;12726;49.148;8.582;2022-11-25T09:12:30;12.13;;;4.85;;
24557;SDS011;12726;49.148;8.582;2022-11-25T09:15:16;8.80;;;4.20;;
24557;SDS011;12726;49.148;8.582;2022-11-25T09:18:01;8.68;;;4.10;;
24557;SDS011;12726;49.148;8.582;2022-11-25T09:23:37;8.30;;;3.85;;
24557;SDS011;12726;49.148;8.582;2022-11-25T09:26:23;9.45;;;3.72;;
24557;SDS011;12726;49.148;8.582;2022-11-25T09:29:10;9.55;;;3.58;;
24557;SDS011;12726;49.148;8.582;2022-11-25T09:31:57;9.85;;;3.95;;
24557;SDS011;12726;49.148;8.582;2022-11-25T09:34:42;10.45;;;3.92;;
24557;SDS011;12726;49.148;8.582;2022-11-25T09:37:28;10.20;;;4.05;;
24557;SDS011;12726;49.148;8.582;2022-11-25T09:40:17;10.50;;;3.78;;
24557;SDS011;12726;49.148;8.582;2022-11-25T09:43:06;5.72;;;3.08;;
24557;SDS011;12726;49.148;8.582;2022-11-25T09:46:25;10.27;;;3.90;;
24557;SDS011;12726;49.148;8.582;2022-11-25T09:49:28;11.18;;;3.75;;
24557;SDS011;12726;49.148;8.582;2022-11-25T09:52:25;10.68;;;3.38;;
24557;SDS011;12726;49.148;8.582;2022-11-25T09:55:19;7.72;;;3.05;;
24557;SDS011;12726;49.148;8.582;2022-11-25T09:58:10;6.75;;;2.42;;
24557;SDS011;12726;49.148;8.582;2022-11-25T10:01:05;9.38;;;2.85;;
24557;SDS011;12726;49.148;8.582;2022-11-25T10:03:57;7.30;;;2.80;;
24557;SDS011;12726;49.148;8.582;2022-11-25T10:06:47;11.27;;;2.83;;
24557;SDS011;12726;49.148;8.582;2022-11-25T10:09:37;6.68;;;2.55;;
24557;SDS011;12726;49.148;8.582;2022-11-25T10:12:25;9.57;;;4.05;;
24557;SDS011;12726;49.148;8.582;2022-11-25T10:15:14;6.55;;;2.80;;
24557;SDS011;12726;49.148;8.582;2022-11-25T10:18:04;6.38;;;2.67;;
24557;SDS011;12726;49.148;8.582;2022-11-25T10:20:57;8.20;;;3.05;;
24557;SDS011;12726;49.148;8.582;2022-11-25T10:23:43;4.57;;;2.90;;
24557;SDS011;12726;49.148;8.582;2022-11-25T10:26:29;6.55;;;2.88;;
24557;SDS011;12726;49.148;8.582;2022-11-25T10:29:23;8.40;;;3.55;;
24557;SDS011;12726;49.148;8.582;2022-11-25T10:32:15;5.85;;;2.53;;
24557;SDS011;12726;49.148;8.582;2022-11-25T10:35:06;8.98;;;3.25;;
24557;SDS011;12726;49.148;8.582;2022-11-25T10:38:01;6.40;;;2.78;;
24557;SDS011;12726;49.148;8.582;2022-11-25T10:40:49;8.55;;;3.30;;
24557;SDS011;12726;49.148;8.582;2022-11-25T10:43:36;6.97;;;3.10;;
24557;SDS011;12726;49.148;8.582;2022-11-25T10:46:24;4.72;;;2.60;;
24557;SDS011;12726;49.148;8.582;2022-11-25T10:49:18;8.15;;;2.70;;
24557;SDS011;12726;49.148;8.582;2022-11-25T10:52:10;7.75;;;2.65;;
24557;SDS011;12726;49.148;8.582;2022-11-25T10:54:57;9.13;;;3.50;;
24557;SDS011;12726;49.148;8.582;2022-11-25T10:57:54;7.50;;;3.03;;
24557;SDS011;12726;49.148;8.582;2022-11-25T11:00:39;7.70;;;3.50;;
24557;SDS011;12726;49.148;8.582;2022-11-25T11:03:26;5.15;;;2.70;;
24557;SDS011;12726;49.148;8.582;2022-11-25T11:06:27;7.30;;;3.30;;
24557;SDS011;12726;49.148;8.582;2022-11-25T11:09:29;10.75;;;3.70;;
24557;SDS011;12726;49.148;8.582;2022-11-25T11:12:17;6.68;;;3.17;;
24557;SDS011;12726;49.148;8.582;2022-11-25T11:15:13;8.93;;;3.55;;
24557;SDS011;12726;49.148;8.582;2022-11-25T11:18:13;8.38;;;3.40;;
24557;SDS011;12726;49.148;8.582;2022-11-25T11:21:19;6.53;;;3.03;;
24557;SDS011;12726;49.148;8.582;2022-11-25T11:24:21;8.30;;;3.42;;
24557;SDS011;12726;49.148;8.582;2022-11-25T11:27:13;6.13;;;3.10;;
24557;SDS011;12726;49.148;8.582;2022-11-25T11:30:07;7.82;;;3.22;;
24557;SDS011;12726;49.148;8.582;2022-11-25T11:32:56;9.82;;;4.22;;
24557;SDS011;12726;49.148;8.582;2022-11-25T11:35:46;11.82;;;4.15;;
24557;SDS011;12726;49.148;8.582;2022-11-25T11:38:41;5.50;;;3.10;;
24557;SDS011;12726;49.148;8.582;2022-11-25T11:41:34;6.25;;;3.55;;
24557;SDS011;12726;49.148;8.582;2022-11-25T11:44:24;7.07;;;3.38;;
24557;SDS011;12726;49.148;8.582;2022-11-25T11:47:20;9.48;;;4.18;;
24557;SDS011;12726;49.148;8.582;2022-11-25T11:50:17;11.18;;;4.00;;
24557;SDS011;12726;49.148;8.582;2022-11-25T11:53:09;11.05;;;3.90;;
24557;SDS011;12726;49.148;8.582;2022-11-25T11:56:03;8.27;;;3.97;;
24557;SDS011;12726;49.148;8.582;2022-11-25T11:58:56;9.23;;;4.05;;
24557;SDS011;12726;49.148;8.582;2022-11-25T12:01:56;8.80;;;4.20;;
24557;SDS011;12726;49.148;8.582;2022-11-25T12:05:00;10.95;;;4.10;;
24557;SDS011;12726;49.148;8.582;2022-11-25T12:07:52;7.95;;;4.38;;
24557;SDS011;12726;49.148;8.582;2022-11-25T12:10:44;10.40;;;4.53;;
24557;SDS011;12726;49.148;8.582;2022-11-25T12:13:36;7.78;;;4.13;;
24557;SDS011;12726;49.148;8.582;2022-11-25T12:16:29;7.10;;;3.85;;
24557;SDS011;12726;49.148;8.582;2022-11-25T12:19:19;10.07;;;4.15;;
24557;SDS011;12726;49.148;8.582;2022-11-25T12:22:09;10.63;;;4.40;;
24557;SDS011;12726;49.148;8.582;2022-11-25T12:25:03;16.15;;;4.20;;
24557;SDS011;12726;49.148;8.582;2022-11-25T12:27:55;9.35;;;3.53;;
24557;SDS011;12726;49.148;8.582;2022-11-25T12:30:49;9.00;;;3.60;;
24557;SDS011;12726;49.148;8.582;2022-11-25T12:33:49;6.50;;;3.63;;
24557;SDS011;12726;49.148;8.582;2022-11-25T12:36:40;7.00;;;3.20;;
24557;SDS011;12726;49.148;8.582;2022-11-25T12:39:29;10.23;;;3.72;;
24557;SDS011;12726;49.148;8.582;2022-11-25T12:42:22;7.53;;;3.65;;
24557;SDS011;12726;49.148;8.582;2022-11-25T12:45:10;9.55;;;3.65;;
24557;SDS011;12726;49.148;8.582;2022-11-25T12:48:03;8.90;;;3.90;;
24557;SDS011;12726;49.148;8.582;2022-11-25T12:50:51;7.40;;;3.38;;
24557;SDS011;12726;49.148;8.582;2022-11-25T12:53:46;6.75;;;3.65;;
24557;SDS011;12726;49.148;8.582;2022-11-25T12:56:46;8.30;;;4.35;;
24557;SDS011;12726;49.148;8.582;2022-11-25T12:59:45;9.70;;;3.75;;
24557;SDS011;12726;49.148;8.582;2022-11-25T13:02:46;8.45;;;4.03;;
24557;SDS011;12726;49.148;8.582;2022-11-25T13:06:00;9.00;;;3.97;;
24557;SDS011;12726;49.148;8.582;2022-11-25T13:09:01;8.15;;;3.85;;
24557;SDS011;12726;49.148;8.582;2022-11-25T13:12:06;8.32;;;3.92;;
24557;SDS011;12726;49.148;8.582;2022-11-25T13:15:15;11.73;;;4.57;;
24557;SDS011;12726;49.148;8.582;2022-11-25T13:18:10;12.40;;;4.05;;
24557;SDS011;12726;49.148;8.582;2022-11-25T13:21:05;10.73;;;3.80;;
24557;SDS011;12726;49.148;8.582;2022-11-25T13:23:52;9.63;;;4.10;;
24557;SDS011;12726;49.148;8.582;2022-11-25T13:26:46;9.45;;;4.28;;
24557;SDS011;12726;49.148;8.582;2022-11-25T13:32:46;9.67;;;4.00;;
24557;SDS011;12726;49.148;8.582;2022-11-25T13:35:33;9.07;;;3.92;;
24557;SDS011;12726;49.148;8.582;2022-11-25T13:38:35;10.27;;;4.47;;
24557;SDS011;12726;49.148;8.582;2022-11-25T13:41:43;7.88;;;4.07;;
24557;SDS011;12726;49.148;8.582;2022-11-25T13:44:31;9.73;;;4.57;;
24557;SDS011;12726;49.148;8.582;2022-11-25T13:47:23;8.70;;;3.95;;
24557;SDS011;12726;49.148;8.582;2022-11-25T13:50:18;11.50;;;4.25;;
24557;SDS011;12726;49.148;8.582;2022-11-25T13:53:15;11.80;;;3.60;;
24557;SDS011;12726;49.148;8.582;2022-11-25T13:56:12;11.82;;;3.55;;
24557;SDS011;12726;49.148;8.582;2022-11-25T13:59:18;8.55;;;3.78;;
24557;SDS011;12726;49.148;8.582;2022-11-25T14:05:40;6.78;;;2.90;;
24557;SDS011;12726;49.148;8.582;2022-11-25T14:08:36;10.88;;;3.92;;
24557;SDS011;12726;49.148;8.582;2022-11-25T14:15:02;6.22;;;2.92;;
24557;SDS011;12726;49.148;8.582;2022-11-25T14:21:20;9.52;;;3.30;;
24557;SDS011;12726;49.148;8.582;2022-11-25T14:24:25;9.82;;;3.58;;
24557;SDS011;12726;49.148;8.582;2022-11-25T14:30:03;8.18;;;2.90;;
24557;SDS011;12726;49.148;8.582;2022-11-25T14:32:52;11.77;;;3.67;;
24557;SDS011;12726;49.148;8.582;2022-11-25T14:35:43;12.40;;;3.70;;
24557;SDS011;12726;49.148;8.582;2022-11-25T14:38:34;9.43;;;3.10;;
24557;SDS011;12726;49.148;8.582;2022-11-25T14:41:22;8.80;;;3.33;;
24557;SDS011;12726;49.148;8.582;2022-11-25T14:44:13;7.05;;;3.40;;
24557;SDS011;12726;49.148;8.582;2022-11-25T14:47:02;6.38;;;3.17;;
24557;SDS011;12726;49.148;8.582;2022-11-25T14:49:49;6.97;;;3.53;;
24557;SDS011;12726;49.148;8.582;2022-11-25T14:52:36;11.45;;;3.15;;
24557;SDS011;12726;49.148;8.582;2022-11-25T14:55:26;10.70;;;3.28;;
24557;SDS011;12726;49.148;8.582;2022-11-25T14:58:13;9.10;;;2.88;;
24557;SDS011;12726;49.148;8.582;2022-11-25T15:01:01;8.52;;;3.25;;
24557;SDS011;12726;49.148;8.582;2022-11-25T15:03:51;8.48;;;3.25;;
24557;SDS011;12726;49.148;8.582;2022-11-25T15:06:47;8.68;;;3.08;;
24557;SDS011;12726;49.148;8.582;2022-11-25T15:09:36;11.57;;;3.85;;
24557;SDS011;12726;49.148;8.582;2022-11-25T15:12:26;7.60;;;3.65;;
24557;SDS011;12726;49.148;8.582;2022-11-25T15:15:15;9.40;;;3.80;;
24557;SDS011;12726;49.148;8.582;2022-11-25T15:18:04;10.77;;;4.05;;
24557;SDS011;12726;49.148;8.582;2022-11-25T15:20:56;6.47;;;2.97;;
24557;SDS011;12726;49.148;8.582;2022-11-25T15:23:43;9.02;;;4.63;;
24557;SDS011;12726;49.148;8.582;2022-11-25T15:26:29;7.95;;;3.15;;
24557;SDS011;12726;49.148;8.582;2022-11-25T15:29:16;10.60;;;3.40;;
24557;SDS011;12726;49.148;8.582;2022-11-25T15:32:02;9.02;;;3.22;;
24557;SDS011;12726;49.148;8.582;2022-11-25T15:34:48;9.38;;;2.95;;
24557;SDS011;12726;49.148;8.582;2022-11-25T15:37:36;7.78;;;2.95;;
24557;SDS011;12726;49.148;8.582;2022-11-25T15:40:28;11.23;;;3.38;;
24557;SDS011;12726;49.148;8.582;2022-11-25T15:43:19;5.55;;;3.03;;
24557;SDS011;12726;49.148;8.582;2022-11-25T15:46:07;13.50;;;4.25;;
24557;SDS011;12726;49.148;8.582;2022-11-25T15:48:53;8.45;;;3.72;;
24557;SDS011;12726;49.148;8.582;2022-11-25T15:51:43;9.63;;;3.05;;
24557;SDS011;12726;49.148;8.582;2022-11-25T15:54:37;11.05;;;3.90;;
24557;SDS011;12726;49.148;8.582;2022-11-25T15:57:26;7.57;;;3.85;;
24557;SDS011;12726;49.148;8.582;2022-11-25T16:00:14;8.88;;;3.42;;
24557;SDS011;12726;49.148;8.582;2022-11-25T16:03:01;9.63;;;3.80;;
24557;SDS011;12726;49.148;8.582;2022-11-25T16:05:51;8.63;;;3.38;;
24557;SDS011;12726;49.148;8.582;2022-11-25T16:08:39;10.00;;;3.67;;
24557;SDS011;12726;49.148;8.582;2022-11-25T16:11:43;12.23;;;3.78;;
24557;SDS011;12726;49.148;8.582;2022-11-25T16:14:32;6.97;;;3.42;;
24557;SDS011;12726;49.148;8.582;2022-11-25T16:17:19;9.38;;;4.22;;
24557;SDS011;12726;49.148;8.582;2022-11-25T16:20:12;14.45;;;4.78;;
24557;SDS011;12726;49.148;8.582;2022-11-25T16:23:05;14.10;;;5.43;;
24557;SDS011;12726;49.148;8.582;2022-11-25T16:25:54;11.38;;;4.90;;
24557;SDS011;12726;49.148;8.582;2022-11-25T16:28:48;18.45;;;4.00;;
24557;SDS011;12726;49.148;8.582;2022-11-25T16:34:21;9.38;;;3.95;;
24557;SDS011;12726;49.148;8.582;2022-11-25T16:37:09;8.95;;;3.35;;
24557;SDS011;12726;49.148;8.582;2022-11-25T16:39:54;15.75;;;4.28;;
24557;SDS011;12726;49.148;8.582;2022-11-25T16:42:41;9.85;;;4.53;;
24557;SDS011;12726;49.148;8.582;2022-11-25T16:45:30;14.75;;;5.45;;
24557;SDS011;12726;49.148;8.582;2022-11-25T16:48:16;15.18;;;4.43;;
24557;SDS011;12726;49.148;8.582;2022-11-25T16:51:04;10.43;;;4.53;;
24557;SDS011;12726;49.148;8.582;2022-11-25T16:53:53;10.60;;;4.30;;
24557;SDS011;12726;49.148;8.582;2022-11-25T16:56:39;9.95;;;4.18;;
24557;SDS011;12726;49.148;8.582;2022-11-25T16:59:27;9.20;;;4.20;;
24557;SDS011;12726;49.148;8.582;2022-11-25T17:02:15;9.70;;;3.75;;
24557;SDS011;12726;49.148;8.582;2022-11-25T17:05:09;14.95;;;4.00;;
24557;SDS011;12726;49.148;8.582;2022-11-25T17:07:59;10.52;;;4.20;;
24557;SDS011;12726;49.148;8.582;2022-11-25T17:10:45;14.95;;;4.55;;
24557;SDS011;12726;49.148;8.582;2022-11-25T17:13:31;9.80;;;3.92;;
24557;SDS011;12726;49.148;8.582;2022-11-25T17:16:18;15.07;;;4.65;;